< < Back
Terminal Aerodrome Forecast


Current Version              Previous Versions:   1  2  3  4  5  6  7  8  9  

Terminal Aerodrome Forecast

290
FTUS44 KMRX 291730
TAFCHA
TAF
KCHA 291730Z 2918/3018 34010KT P6SM SCT060
     FM300200 36003KT P6SM SKC
     FM301400 02005KT P6SM SCT040=

Latest METAR

424
SAUS80 KWBC 301900 RRA
MTRCHA
METAR KCHA 301853Z 02008KT 350V050 10SM FEW050 SCT250 BKN300 26/13 A3009
RMK AO2 SLP182 T02610133


USA.gov is the U.S. government's official web portal to all federal, state and local government web resources and services.